Time;durP1;ratioP1;P1;durP2;ratioP2;P2;SDS_P1;SDS_P2;PMS_P1;PMS_P2;Temp;Humidity;BMP_temperature;BMP_pressure;BME280_temperature;BME280_humidity;BME280_pressure;Samples;Min_cycle;Max_cycle;Signal;HPM_P1;HPM_P2
2021/11/19 00:02:25;;;;;;;25.13;13.48;;;1.50;99.90;;;;;;5013548;28;20036;-66
2021/11/19 00:04:52;;;;;;;18.52;12.02;;;1.50;99.90;;;;;;5012882;28;20061;-66
2021/11/19 00:07:18;;;;;;;17.27;12.48;;;1.40;99.90;;;;;;5013340;28;20030;-66
2021/11/19 00:09:45;;;;;;;18.27;12.13;;;1.50;99.90;;;;;;5013428;28;20045;-66
2021/11/19 00:12:11;;;;;;;20.05;12.48;;;1.00;99.90;;;;;;5013167;28;20480;-66
2021/11/19 00:14:37;;;;;;;18.35;12.63;;;1.80;99.90;;;;;;5012407;28;20038;-66
2021/11/19 00:17:08;;;;;;;16.25;11.18;;;1.50;99.90;;;;;;5013112;28;20037;-66
2021/11/19 00:19:36;;;;;;;17.73;11.55;;;1.20;99.90;;;;;;5013064;28;20037;-66
2021/11/19 00:22:03;;;;;;;17.23;11.52;;;1.50;99.90;;;;;;5013104;28;20037;-66
2021/11/19 00:24:29;;;;;;;17.95;12.52;;;1.40;99.90;;;;;;5012413;28;20029;-66
2021/11/19 00:26:55;;;;;;;19.27;12.60;;;1.10;99.90;;;;;;5012775;28;20583;-67
2021/11/19 00:29:20;;;;;;;20.55;13.13;;;1.80;99.90;;;;;;5011646;28;20096;-66
2021/11/19 00:31:47;;;;;;;18.52;11.15;;;1.60;99.90;;;;;;5012964;28;20032;-66
2021/11/19 00:34:13;;;;;;;20.83;11.95;;;1.30;99.90;;;;;;5012956;28;20041;-66
2021/11/19 00:36:39;;;;;;;15.50;11.32;;;1.20;99.90;;;;;;5011713;28;20026;-67
2021/11/19 00:39:10;;;;;;;18.85;12.48;;;1.70;99.90;;;;;;5011718;28;20080;-65
2021/11/19 00:41:37;;;;;;;16.95;12.15;;;0.90;99.90;;;;;;5012570;28;20567;-66
2021/11/19 00:44:04;;;;;;;20.00;12.20;;;1.40;99.90;;;;;;5012736;28;20128;-66
2021/11/19 00:46:31;;;;;;;21.80;12.98;;;1.30;99.90;;;;;;5012301;28;20021;-66
2021/11/19 00:48:57;;;;;;;21.65;12.57;;;1.20;99.90;;;;;;5012586;28;20119;-66
2021/11/19 00:51:29;;;;;;;20.38;12.57;;;1.30;99.90;;;;;;5012773;28;20627;-67
2021/11/19 00:53:57;;;;;;;30.05;13.35;;;1.10;99.90;;;;;;5012444;28;20040;-65
2021/11/19 00:56:26;;;;;;;17.35;11.93;;;1.80;99.90;;;;;;5011657;28;20076;-65
2021/11/19 00:58:54;;;;;;;18.35;12.63;;;1.30;99.90;;;;;;5012123;28;20034;-65
2021/11/19 01:01:41;;;;;;;21.52;13.27;;;1.30;99.90;;;;;;5012521;28;20025;-65
2021/11/19 01:04:08;;;;;;;19.02;12.35;;;1.00;99.90;;;;;;5012758;28;20037;-66
2021/11/19 01:06:35;;;;;;;20.60;13.15;;;1.10;99.90;;;;;;5011753;28;20365;-66
2021/11/19 01:09:04;;;;;;;19.08;12.75;;;1.30;99.90;;;;;;5012441;28;20044;-66
2021/11/19 01:11:30;;;;;;;19.05;12.38;;;1.30;99.90;;;;;;5012194;28;20050;-66
2021/11/19 01:13:58;;;;;;;24.00;13.88;;;1.30;99.90;;;;;;5012004;28;20076;-65
2021/11/19 01:16:31;;;;;;;19.05;12.57;;;1.70;99.90;;;;;;5011609;28;20026;-65
2021/11/19 01:19:10;;;;;;;20.20;12.30;;;1.00;99.90;;;;;;5012014;28;20026;-65
2021/11/19 01:21:52;;;;;;;19.98;12.43;;;1.30;99.90;;;;;;5012161;28;20029;-65
2021/11/19 01:24:18;;;;;;;18.23;12.57;;;1.10;99.90;;;;;;5011588;28;20021;-66
2021/11/19 01:26:46;;;;;;;17.55;12.50;;;1.10;99.90;;;;;;5011726;28;20029;-65
2021/11/19 01:29:15;;;;;;;17.92;12.35;;;2.60;99.90;;;;;;5010991;28;20045;-65
2021/11/19 01:32:06;;;;;;;23.80;15.25;;;1.10;99.90;;;;;;5053561;22;20044;-68
2021/11/19 01:34:32;;;;;;;21.83;13.90;;;1.20;99.90;;;;;;5035307;28;20455;-68
2021/11/19 01:36:58;;;;;;;24.38;15.13;;;1.40;99.90;;;;;;5031808;28;20032;-68
2021/11/19 01:39:27;;;;;;;21.35;14.07;;;1.00;99.90;;;;;;5032612;28;20025;-66
2021/11/19 01:41:57;;;;;;;21.63;13.52;;;0.90;99.90;;;;;;5030253;28;20027;-69
2021/11/19 01:44:30;;;;;;;23.17;14.48;;;0.90;99.90;;;;;;5031235;28;20037;-69
2021/11/19 01:46:57;;;;;;;22.88;13.82;;;1.10;99.90;;;;;;5031640;28;20103;-69
2021/11/19 01:49:25;;;;;;;20.52;13.65;;;1.30;99.90;;;;;;5031641;28;20099;-68
2021/11/19 01:51:59;;;;;;;25.15;15.40;;;1.10;99.90;;;;;;5029726;28;20029;-69
2021/11/19 01:54:26;;;;;;;26.75;14.85;;;1.00;99.90;;;;;;5031027;28;20029;-67
2021/11/19 01:56:58;;;;;;;22.35;14.35;;;0.80;99.90;;;;;;5035282;28;20100;-69
2021/11/19 01:59:36;;;;;;;20.35;13.50;;;0.90;99.90;;;;;;5051455;28;20036;-69
2021/11/19 02:02:06;;;;;;;21.42;13.55;;;0.80;99.90;;;;;;5049258;28;20021;-69
2021/11/19 02:04:43;;;;;;;19.90;13.65;;;0.80;99.90;;;;;;5050602;28;20021;-69
2021/11/19 02:07:28;;;;;;;18.00;12.43;;;0.50;99.90;;;;;;5051405;28;20092;-68
2021/11/19 02:10:12;;;;;;;19.20;12.43;;;1.50;99.90;;;;;;5051277;28;20100;-68
2021/11/19 02:13:09;;;;;;;22.27;13.48;;;0.80;99.90;;;;;;5051497;28;20498;-70
2021/11/19 02:15:49;;;;;;;24.85;13.45;;;0.80;99.90;;;;;;5050583;28;20111;-68
2021/11/19 02:18:28;;;;;;;20.83;13.48;;;0.70;99.90;;;;;;5051156;28;20494;-68
2021/11/19 02:21:03;;;;;;;22.40;13.63;;;0.70;99.90;;;;;;5051601;28;20031;-68
2021/11/19 02:23:58;;;;;;;19.33;12.45;;;0.80;99.90;;;;;;5051220;28;20055;-69
2021/11/19 02:26:28;;;;;;;25.10;15.60;;;1.00;99.90;;;;;;5049727;28;20061;-68
2021/11/19 02:28:55;;;;;;;22.60;14.00;;;0.70;99.90;;;;;;5051201;28;20025;-68
2021/11/19 02:31:29;;;;;;;27.08;15.15;;;0.90;99.90;;;;;;5050660;28;20040;-69
2021/11/19 02:33:58;;;;;;;29.45;14.43;;;0.90;99.90;;;;;;5051152;28;20099;-69
2021/11/19 02:36:43;;;;;;;27.67;15.70;;;0.70;99.90;;;;;;5050372;28;20394;-69
2021/11/19 02:39:30;;;;;;;30.52;17.08;;;0.70;99.90;;;;;;5051098;28;20112;-67
2021/11/19 02:42:03;;;;;;;27.05;16.02;;;0.70;99.90;;;;;;5050977;28;20528;-68
2021/11/19 02:44:34;;;;;;;24.60;15.98;;;0.70;99.90;;;;;;5050292;28;20040;-67
2021/11/19 02:47:07;;;;;;;24.90;16.70;;;0.70;99.90;;;;;;5050866;28;20051;-68
2021/11/19 02:49:32;;;;;;;24.30;16.17;;;0.80;99.90;;;;;;5050967;28;20035;-68
2021/11/19 02:51:59;;;;;;;25.30;16.48;;;0.80;99.90;;;;;;5050782;28;20025;-66
2021/11/19 02:54:28;;;;;;;28.17;16.42;;;1.40;99.90;;;;;;5050433;28;20040;-69
2021/11/19 02:56:54;;;;;;;26.02;16.48;;;1.00;99.90;;;;;;5050718;28;20061;-69
2021/11/19 02:59:22;;;;;;;26.88;16.27;;;0.50;99.90;;;;;;5050799;28;20467;-68
2021/11/19 03:01:54;;;;;;;24.80;15.70;;;1.00;99.90;;;;;;5050770;28;20025;-68
2021/11/19 03:04:24;;;;;;;28.10;15.35;;;0.80;99.90;;;;;;5054038;28;20089;-69
2021/11/19 03:06:53;;;;;;;25.95;15.48;;;1.30;99.90;;;;;;5054337;28;20083;-68
2021/11/19 03:09:24;;;;;;;21.73;14.85;;;0.80;99.90;;;;;;5054588;28;20040;-68
2021/11/19 03:11:50;;;;;;;24.40;14.93;;;0.90;99.90;;;;;;5054398;28;20391;-68
2021/11/19 03:14:18;;;;;;;25.77;15.43;;;0.70;99.90;;;;;;5053860;28;20032;-69
2021/11/19 03:16:44;;;;;;;23.33;15.32;;;0.70;99.90;;;;;;5054042;28;20025;-68
2021/11/19 03:19:10;;;;;;;24.58;15.25;;;0.80;99.90;;;;;;5054187;28;20029;-68
2021/11/19 03:21:37;;;;;;;26.30;14.40;;;0.80;99.90;;;;;;5054405;28;20021;-68
2021/11/19 03:24:03;;;;;;;25.30;15.23;;;0.90;99.90;;;;;;5053948;28;20025;-68
2021/11/19 03:26:32;;;;;;;27.95;16.60;;;1.00;99.90;;;;;;5053907;28;20390;-68
2021/11/19 03:28:59;;;;;;;30.92;17.60;;;1.20;99.90;;;;;;5053985;28;20482;-68
2021/11/19 03:31:25;;;;;;;30.00;18.30;;;1.10;99.90;;;;;;5053276;28;20032;-68
2021/11/19 03:33:52;;;;;;;35.50;17.65;;;0.90;99.90;;;;;;5053952;28;20033;-68
2021/11/19 03:36:21;;;;;;;32.80;17.90;;;0.70;99.90;;;;;;5053302;28;20032;-69
2021/11/19 03:38:50;;;;;;;25.63;16.30;;;0.90;99.90;;;;;;5053927;28;20122;-70
2021/11/19 03:41:18;;;;;;;28.45;16.60;;;0.90;99.90;;;;;;5053810;28;20469;-68
2021/11/19 03:43:59;;;;;;;28.52;15.80;;;0.80;99.90;;;;;;5054127;28;20497;-68
2021/11/19 03:46:33;;;;;;;30.38;17.20;;;0.70;99.90;;;;;;5053144;28;20116;-69
2021/11/19 03:48:59;;;;;;;30.05;16.83;;;1.20;99.90;;;;;;5053626;28;20490;-70
2021/11/19 03:51:31;;;;;;;40.05;18.17;;;0.70;99.90;;;;;;5053443;28;20048;-68
2021/11/19 03:53:58;;;;;;;36.50;19.02;;;0.40;99.90;;;;;;5053602;28;20045;-69
2021/11/19 03:56:24;;;;;;;31.15;19.30;;;0.70;99.90;;;;;;5052749;28;20029;-69
2021/11/19 03:58:51;;;;;;;32.85;18.42;;;0.90;99.90;;;;;;5053177;28;20475;-68
2021/11/19 04:01:25;;;;;;;29.17;16.70;;;1.00;99.90;;;;;;5053159;28;20055;-69
2021/11/19 04:03:51;;;;;;;29.42;15.95;;;0.60;99.90;;;;;;5053132;28;20048;-69
2021/11/19 04:06:18;;;;;;;30.10;17.10;;;0.80;99.90;;;;;;5052613;28;20021;-68
2021/11/19 04:08:45;;;;;;;26.25;15.95;;;;;;;;;;5053106;28;20033;-68
2021/11/19 04:11:12;;;;;;;33.20;17.13;;;0.70;99.90;;;;;;5053059;28;20028;-67
2021/11/19 04:13:39;;;;;;;29.60;17.25;;;0.30;99.90;;;;;;5053237;28;20021;-69
2021/11/19 04:16:10;;;;;;;22.83;14.40;;;0.80;99.90;;;;;;5050760;28;20025;-69
2021/11/19 04:18:36;;;;;;;24.13;14.77;;;0.70;99.90;;;;;;5052997;28;20021;-69
2021/11/19 04:21:03;;;;;;;29.40;16.00;;;0.50;99.90;;;;;;5052898;28;20536;-69
2021/11/19 04:23:30;;;;;;;29.35;17.27;;;0.80;99.90;;;;;;5053042;28;20371;-69
2021/11/19 04:25:57;;;;;;;27.25;16.63;;;0.70;99.90;;;;;;5052259;28;20021;-70
2021/11/19 04:28:24;;;;;;;30.88;16.90;;;0.60;99.90;;;;;;5052719;28;20032;-69
2021/11/19 04:30:53;;;;;;;30.52;16.40;;;1.20;99.90;;;;;;5052194;28;20039;-69
2021/11/19 04:33:19;;;;;;;28.92;15.73;;;0.90;99.90;;;;;;5052687;28;20029;-68
2021/11/19 04:35:47;;;;;;;30.70;16.52;;;0.80;99.90;;;;;;5052072;28;20021;-67
2021/11/19 04:38:16;;;;;;;29.33;17.25;;;0.60;99.90;;;;;;5052629;28;20571;-69
2021/11/19 04:40:42;;;;;;;25.40;15.57;;;0.50;99.90;;;;;;5052643;28;20471;-68
2021/11/19 04:43:10;;;;;;;28.45;16.55;;;0.60;99.90;;;;;;5052570;28;20061;-68
2021/11/19 04:45:37;;;;;;;25.25;16.05;;;0.60;99.90;;;;;;5051806;28;20025;-69
2021/11/19 04:48:04;;;;;;;30.75;17.75;;;0.70;99.90;;;;;;5054467;28;20467;-68
2021/11/19 04:50:34;;;;;;;31.25;17.20;;;1.10;99.90;;;;;;5055093;28;20029;-69
2021/11/19 04:53:00;;;;;;;31.15;16.42;;;0.90;99.90;;;;;;5051329;28;20032;-68
2021/11/19 04:55:27;;;;;;;27.40;16.95;;;1.50;99.90;;;;;;5052369;28;20040;-69
2021/11/19 04:57:53;;;;;;;31.48;17.15;;;0.80;99.90;;;;;;5051501;28;20410;-68
2021/11/19 05:00:23;;;;;;;29.02;16.05;;;0.80;99.90;;;;;;5052373;28;20029;-68
2021/11/19 05:02:49;;;;;;;27.60;15.90;;;0.90;99.90;;;;;;5052126;28;20170;-69
2021/11/19 05:05:16;;;;;;;32.47;17.45;;;1.00;99.90;;;;;;5049033;28;20504;-68
2021/11/19 05:07:42;;;;;;;30.52;16.63;;;1.10;99.90;;;;;;5053256;28;20021;-68
2021/11/19 05:10:08;;;;;;;41.45;18.20;;;1.50;99.90;;;;;;5053352;28;20483;-68
2021/11/19 05:12:41;;;;;;;26.73;16.30;;;0.80;99.90;;;;;;5052578;28;20048;-69
2021/11/19 05:15:09;;;;;;;29.23;15.52;;;1.10;99.90;;;;;;5052015;28;20108;-68
2021/11/19 05:17:35;;;;;;;31.85;16.70;;;0.90;99.90;;;;;;5052199;28;20478;-67
2021/11/19 05:20:01;;;;;;;27.27;16.70;;;0.60;99.90;;;;;;5051751;28;20033;-67
2021/11/19 05:22:27;;;;;;;31.30;16.55;;;1.00;99.90;;;;;;5051988;28;20467;-66
2021/11/19 05:24:53;;;;;;;30.15;17.98;;;0.70;99.90;;;;;;5051101;28;20148;-67
2021/11/19 05:27:20;;;;;;;28.92;16.55;;;1.30;99.90;;;;;;5051986;28;20029;-68
2021/11/19 05:29:46;;;;;;;31.05;17.35;;;0.80;99.90;;;;;;5051855;28;20025;-69
2021/11/19 05:32:12;;;;;;;34.25;18.35;;;1.00;99.90;;;;;;5051651;28;20033;-70
2021/11/19 05:34:39;;;;;;;37.22;20.50;;;0.90;99.90;;;;;;5051079;28;20116;-70
2021/11/19 05:37:05;;;;;;;39.88;20.48;;;1.30;99.90;;;;;;5051425;28;20078;-68
2021/11/19 05:39:32;;;;;;;34.60;19.65;;;1.00;99.90;;;;;;5051548;28;20048;-68
2021/11/19 05:41:58;;;;;;;27.95;16.77;;;0.90;99.90;;;;;;5051895;28;20033;-69
2021/11/19 05:44:24;;;;;;;33.25;17.52;;;0.80;99.90;;;;;;5051361;28;20017;-68
2021/11/19 05:46:50;;;;;;;31.35;17.15;;;3.00;99.90;;;;;;5052089;28;20444;-68
2021/11/19 05:49:20;;;;;;;37.20;17.65;;;0.90;99.90;;;;;;5052218;28;20029;-69
2021/11/19 05:51:49;;;;;;;32.45;17.65;;;1.10;99.90;;;;;;5050525;28;20060;-68
2021/11/19 05:54:17;;;;;;;37.25;17.75;;;0.90;99.90;;;;;;5021611;28;20458;-69
2021/11/19 05:56:43;;;;;;;28.95;17.48;;;0.60;99.90;;;;;;5033489;28;20052;-71
2021/11/19 05:59:10;;;;;;;30.38;17.85;;;1.10;99.90;;;;;;5045438;28;20017;-71
2021/11/19 06:01:36;;;;;;;32.45;18.40;;;0.80;99.90;;;;;;5029749;28;20030;-71
2021/11/19 06:04:02;;;;;;;29.63;17.35;;;1.30;99.90;;;;;;5030036;28;20053;-71
2021/11/19 06:06:28;;;;;;;31.92;16.48;;;0.80;99.90;;;;;;5029142;28;20104;-71
2021/11/19 06:08:54;;;;;;;30.25;16.65;;;0.90;99.90;;;;;;5031461;28;20163;-71
2021/11/19 06:11:25;;;;;;;31.65;17.65;;;2.10;99.90;;;;;;5044089;28;20113;-71
2021/11/19 06:14:22;;;;;;;31.03;15.20;;;0.90;99.90;;;;;;5030192;28;20033;-70
2021/11/19 06:16:52;;;;;;;26.38;15.23;;;0.80;99.90;;;;;;5028425;28;20676;-71
2021/11/19 06:19:22;;;;;;;32.33;15.57;;;1.20;99.90;;;;;;5030074;28;20025;-71
2021/11/19 06:21:53;;;;;;;28.10;16.15;;;1.30;99.90;;;;;;5031280;28;20128;-71
2021/11/19 06:24:31;;;;;;;29.05;16.65;;;0.80;99.90;;;;;;5054890;28;20278;-70
2021/11/19 06:26:58;;;;;;;26.35;14.77;;;0.70;99.90;;;;;;5071788;28;20044;-71
2021/11/19 06:29:24;;;;;;;24.58;15.32;;;0.80;99.90;;;;;;5061072;28;20025;-78
2021/11/19 06:31:53;;;;;;;25.20;15.30;;;0.70;99.90;;;;;;5045510;28;20114;-79
2021/11/19 06:34:19;;;;;;;32.65;17.73;;;2.00;99.90;;;;;;5031765;28;20026;-79
2021/11/19 06:36:45;;;;;;;32.15;18.40;;;1.70;99.90;;;;;;5050855;28;20032;-79
2021/11/19 06:39:12;;;;;;;28.35;16.35;;;1.70;99.90;;;;;;5065563;28;20057;-71
2021/11/19 06:41:38;;;;;;;63.13;14.52;;;1.30;99.90;;;;;;5054322;28;20491;-70
2021/11/19 06:44:04;;;;;;;21.67;13.23;;;1.10;99.90;;;;;;5035125;28;20025;-70
2021/11/19 06:46:30;;;;;;;22.23;14.68;;;1.40;99.90;;;;;;5034555;28;20045;-73
2021/11/19 06:48:56;;;;;;;22.33;13.48;;;1.00;99.90;;;;;;5033861;28;20038;-71
2021/11/19 06:51:23;;;;;;;22.00;14.75;;;1.00;99.90;;;;;;5034529;28;20108;-73
2021/11/19 06:53:49;;;;;;;23.63;14.30;;;1.10;99.90;;;;;;5035128;28;20665;-74
2021/11/19 06:56:17;;;;;;;26.85;15.45;;;0.80;99.90;;;;;;5034164;28;20034;-74
2021/11/19 06:58:44;;;;;;;23.63;13.95;;;0.70;99.90;;;;;;5034452;28;20060;-74
2021/11/19 07:01:10;;;;;;;26.83;14.85;;;0.70;99.90;;;;;;5033450;28;20507;-74
2021/11/19 07:03:35;;;;;;;24.92;14.57;;;0.90;99.90;;;;;;5034797;28;20451;-73
2021/11/19 07:06:02;;;;;;;26.42;15.43;;;2.00;99.90;;;;;;5033737;28;20049;-74
2021/11/19 07:08:29;;;;;;;26.30;15.25;;;0.80;99.90;;;;;;5042773;28;20044;-74
2021/11/19 07:10:58;;;;;;;25.50;14.85;;;0.70;99.90;;;;;;5054386;28;20535;-74
2021/11/19 07:13:24;;;;;;;25.10;15.13;;;0.90;99.90;;;;;;5054306;28;20033;-74
2021/11/19 07:15:50;;;;;;;28.55;14.60;;;0.80;99.90;;;;;;5053414;28;20036;-74
2021/11/19 07:18:17;;;;;;;26.48;15.73;;;0.90;99.90;;;;;;5054406;28;20025;-74
2021/11/19 07:20:44;;;;;;;34.33;17.67;;;0.90;99.90;;;;;;5053923;28;20047;-71
2021/11/19 07:23:10;;;;;;;29.98;16.77;;;0.70;99.90;;;;;;5054114;28;20490;-72
2021/11/19 07:25:38;;;;;;;28.65;16.58;;;0.80;99.90;;;;;;5053332;28;20017;-71
2021/11/19 07:28:07;;;;;;;32.08;17.02;;;1.90;99.90;;;;;;5053918;28;20025;-71
2021/11/19 07:30:36;;;;;;;30.15;16.15;;;1.30;99.90;;;;;;5053897;28;20109;-71
2021/11/19 07:33:02;;;;;;;30.70;17.52;;;0.90;99.90;;;;;;5031502;28;20483;-71
2021/11/19 07:35:28;;;;;;;45.20;24.73;;;1.30;99.90;;;;;;5028620;28;20529;-71
2021/11/19 07:37:54;;;;;;;40.97;23.95;;;1.00;99.90;;;;;;5040804;28;20029;-71
2021/11/19 07:40:25;;;;;;;26.95;15.32;;;1.10;99.90;;;;;;5047931;28;20049;-71
2021/11/19 07:45:26;;;;;;;22.27;13.50;;;1.10;99.90;;;;;;5070057;28;20047;-69
2021/11/19 07:47:52;;;;;;;17.35;11.13;;;1.10;99.90;;;;;;5074389;28;20035;-67
2021/11/19 07:50:24;;;;;;;13.02;9.75;;;1.20;99.90;;;;;;5074514;28;20462;-67
2021/11/19 07:52:50;;;;;;;14.35;10.23;;;1.20;99.90;;;;;;5073728;28;20040;-68
2021/11/19 07:55:16;;;;;;;15.13;11.15;;;1.40;99.90;;;;;;5053574;28;20104;-68
2021/11/19 07:57:42;;;;;;;17.80;11.50;;;1.20;99.90;;;;;;5054198;28;20037;-68
2021/11/19 08:00:15;;;;;;;19.83;10.88;;;1.40;99.90;;;;;;5053252;28;20033;-68
2021/11/19 08:02:41;;;;;;;15.80;10.95;;;1.40;99.90;;;;;;5053575;28;20013;-68
2021/11/19 08:05:07;;;;;;;14.15;10.48;;;1.50;99.90;;;;;;5053260;28;20390;-68
2021/11/19 08:07:34;;;;;;;63.67;41.10;;;2.10;99.90;;;;;;5057635;28;20017;-68
2021/11/19 08:10:01;;;;;;;15.77;10.85;;;2.60;99.90;;;;;;5058153;28;20033;-70
2021/11/19 08:12:27;;;;;;;17.05;10.43;;;2.60;99.90;;;;;;5050789;28;20075;-68
2021/11/19 08:14:53;;;;;;;18.83;11.52;;;2.70;99.90;;;;;;5050838;28;20606;-70
2021/11/19 08:17:27;;;;;;;16.42;10.18;;;2.50;99.90;;;;;;5058132;28;20032;-70
2021/11/19 08:19:54;;;;;;;15.13;9.98;;;2.50;99.90;;;;;;5060866;28;20013;-70
2021/11/19 08:22:20;;;;;;;17.70;12.20;;;2.70;99.90;;;;;;5061411;28;20048;-70
2021/11/19 08:24:47;;;;;;;20.55;14.38;;;3.10;99.90;;;;;;5059054;28;20025;-67
2021/11/19 08:27:17;;;;;;;16.27;10.77;;;3.00;99.90;;;;;;5056160;28;20025;-69
2021/11/19 08:29:46;;;;;;;15.73;10.77;;;2.90;99.90;;;;;;5055879;28;20044;-68
2021/11/19 08:32:13;;;;;;;15.23;10.38;;;2.80;99.90;;;;;;5056218;28;20033;-67
2021/11/19 08:34:40;;;;;;;16.92;10.98;;;2.90;99.90;;;;;;5052423;28;20403;-67
2021/11/19 08:37:07;;;;;;;14.65;10.10;;;3.30;99.90;;;;;;5053622;28;20108;-68
2021/11/19 08:39:33;;;;;;;15.95;11.05;;;3.90;99.90;;;;;;5052899;28;20078;-68
2021/11/19 08:41:59;;;;;;;16.52;10.27;;;4.30;99.90;;;;;;5052928;28;20017;-69
2021/11/19 08:44:25;;;;;;;15.90;10.35;;;4.70;99.90;;;;;;5051777;28;20167;-68
2021/11/19 08:46:53;;;;;;;14.13;10.27;;;4.50;99.90;;;;;;5052769;28;20028;-68
2021/11/19 08:49:29;;;;;;;13.45;9.85;;;4.60;99.90;;;;;;5052526;28;20033;-69
2021/11/19 08:51:55;;;;;;;12.70;9.10;;;4.70;99.90;;;;;;5052706;28;20059;-68
2021/11/19 08:54:22;;;;;;;13.43;10.20;;;4.80;99.90;;;;;;5052139;28;20510;-69
2021/11/19 08:56:51;;;;;;;12.40;9.90;;;5.50;99.90;;;;;;5035075;28;20082;-68
2021/11/19 08:59:19;;;;;;;14.93;9.52;;;5.20;99.90;;;;;;5051721;28;20036;-68
2021/11/19 09:01:49;;;;;;;10.73;8.50;;;5.20;99.90;;;;;;5064552;28;20021;-70
2021/11/19 09:04:16;;;;;;;10.63;8.25;;;5.10;99.90;;;;;;5069313;28;20073;-69
2021/11/19 09:06:42;;;;;;;11.15;8.50;;;5.00;99.90;;;;;;5067888;28;20024;-69
2021/11/19 09:09:09;;;;;;;9.60;7.32;;;5.10;99.90;;;;;;5064780;28;20021;-69
2021/11/19 09:11:38;;;;;;;9.52;7.82;;;5.40;99.90;;;;;;5055079;28;20048;-68
2021/11/19 09:14:04;;;;;;;9.50;7.53;;;5.40;99.90;;;;;;5058233;28;20021;-69
2021/11/19 09:16:36;;;;;;;10.18;7.60;;;5.80;99.90;;;;;;5067066;28;20042;-69
2021/11/19 09:19:29;;;;;;;9.65;7.72;;;5.80;99.90;;;;;;5072424;28;20029;-70
2021/11/19 09:22:18;;;;;;;8.68;6.75;;;5.90;99.90;;;;;;5054718;28;20024;-68
2021/11/19 09:24:44;;;;;;;9.00;6.72;;;5.40;99.90;;;;;;5055608;28;20021;-69
2021/11/19 09:27:14;;;;;;;8.13;7.18;;;5.50;99.90;;;;;;5052816;28;20025;-69
2021/11/19 09:29:42;;;;;;;10.85;7.20;;;5.80;99.90;;;;;;5051222;28;20400;-69
2021/11/19 09:32:09;;;;;;;8.60;6.90;;;6.10;99.90;;;;;;5051331;28;20478;-69
2021/11/19 09:34:38;;;;;;;8.38;6.28;;;6.50;99.90;;;;;;5051896;28;20032;-69
2021/11/19 09:37:09;;;;;;;7.30;5.88;;;6.70;99.90;;;;;;5052231;28;20024;-69
2021/11/19 09:39:35;;;;;;;7.57;6.03;;;7.20;99.90;;;;;;5052041;28;20592;-69
2021/11/19 09:42:42;;;;;;;6.57;5.40;;;8.00;99.90;;;;;;5052191;28;20503;-69
2021/11/19 09:45:13;;;;;;;5.93;5.10;;;9.40;99.90;;;;;;4964014;28;20121;-75
2021/11/19 09:48:01;;;;;;;6.45;5.82;;;11.00;99.90;;;;;;5032369;28;20033;-75
2021/11/19 09:51:04;;;;;;;8.23;5.65;;;12.30;99.90;;;;;;5035297;28;20021;-75
2021/11/19 09:53:54;;;;;;;9.07;5.43;;;12.80;99.90;;;;;;5052942;28;20065;-71
2021/11/19 09:56:57;;;;;;;6.60;5.28;;;14.10;99.90;;;;;;5051199;28;20474;-69
2021/11/19 09:59:45;;;;;;;7.40;6.28;;;13.30;99.90;;;;;;5050412;28;20104;-69
2021/11/19 10:02:50;;;;;;;6.90;6.20;;;11.70;99.90;;;;;;5051453;28;20087;-69
2021/11/19 10:05:35;;;;;;;13.65;8.80;;;10.80;99.90;;;;;;5051610;28;20025;-69
2021/11/19 10:08:06;;;;;;;8.57;7.47;;;9.70;99.90;;;;;;5051941;28;20017;-69
2021/11/19 10:10:47;;;;;;;8.05;6.10;;;8.70;99.90;;;;;;5051655;28;20103;-69
2021/11/19 10:13:21;;;;;;;7.00;5.85;;;9.10;99.90;;;;;;5056531;28;20017;-69
2021/11/19 10:16:02;;;;;;;6.43;5.75;;;9.80;99.90;;;;;;5070991;28;20029;-68
2021/11/19 10:18:46;;;;;;;6.65;5.63;;;10.10;99.90;;;;;;5066666;28;20029;-69
2021/11/19 10:21:16;;;;;;;9.43;5.28;;;9.30;99.90;;;;;;5055637;28;20053;-69
2021/11/19 10:23:47;;;;;;;6.30;5.28;;;9.40;99.90;;;;;;5055767;28;20020;-69
2021/11/19 10:26:30;;;;;;;7.55;5.28;;;10.30;99.90;;;;;;5054854;28;20033;-69
2021/11/19 10:29:02;;;;;;;7.40;4.30;;;12.00;99.90;;;;;;5054984;28;20055;-69
2021/11/19 10:31:28;;;;;;;7.30;4.93;;;12.90;99.90;;;;;;5053958;28;20033;-69
2021/11/19 10:34:12;;;;;;;5.32;4.53;;;13.60;99.90;;;;;;5055127;28;20541;-69
2021/11/19 10:36:48;;;;;;;5.50;5.00;;;14.20;99.90;;;;;;5053933;28;20383;-70
2021/11/19 10:39:42;;;;;;;6.07;5.18;;;14.90;99.90;;;;;;5053924;28;20113;-70
2021/11/19 10:42:33;;;;;;;6.22;5.57;;;15.90;98.20;;;;;;5054789;28;20033;-70
2021/11/19 10:45:26;;;;;;;7.00;5.18;;;16.00;98.50;;;;;;5054172;28;20052;-70
2021/11/19 10:48:08;;;;;;;5.57;5.07;;;16.10;97.90;;;;;;5054679;28;20411;-70
2021/11/19 10:50:55;;;;;;;7.93;5.13;;;15.90;97.00;;;;;;5054121;28;20052;-70
2021/11/19 10:53:43;;;;;;;5.80;5.22;;;15.60;97.80;;;;;;5055401;28;20429;-70
2021/11/19 10:56:20;;;;;;;8.00;5.13;;;16.10;97.50;;;;;;5053671;28;20032;-70
2021/11/19 10:58:49;;;;;;;8.23;4.78;;;16.70;96.40;;;;;;5054516;28;20028;-70
2021/11/19 11:01:45;;;;;;;12.35;6.97;;;16.30;96.20;;;;;;5054606;28;20025;-70
2021/11/19 11:04:30;;;;;;;9.02;4.97;;;16.50;96.50;;;;;;5010861;28;20033;-70
2021/11/19 11:07:08;;;;;;;6.70;4.90;;;15.90;96.80;;;;;;5054331;28;20063;-70
2021/11/19 11:10:00;;;;;;;6.78;5.47;;;15.40;97.60;;;;;;5054522;28;20056;-71
2021/11/19 11:12:42;;;;;;;6.55;5.22;;;14.90;99.00;;;;;;5054195;28;20040;-70
2021/11/19 11:15:17;;;;;;;6.43;5.43;;;15.70;97.80;;;;;;5035714;28;20108;-71
2021/11/19 11:18:04;;;;;;;6.80;5.38;;;16.00;96.70;;;;;;5054969;28;20024;-71
2021/11/19 11:20:36;;;;;;;5.78;4.82;;;15.80;96.90;;;;;;5053671;28;20025;-70
2021/11/19 11:23:21;;;;;;;48.95;21.33;;;16.10;97.00;;;;;;5053213;28;20053;-70
2021/11/19 11:26:17;;;;;;;5.05;4.60;;;16.70;96.30;;;;;;5051423;28;20028;-69
2021/11/19 11:28:45;;;;;;;6.00;4.80;;;15.80;96.40;;;;;;5052964;28;20090;-69
2021/11/19 11:31:42;;;;;;;4.88;4.38;;;15.80;97.00;;;;;;5050966;28;20092;-70
2021/11/19 11:34:28;;;;;;;6.22;4.85;;;14.70;98.10;;;;;;5050444;28;20120;-72
2021/11/19 11:36:54;;;;;;;6.85;5.03;;;15.20;98.30;;;;;;5048361;28;20775;-70
2021/11/19 11:39:32;;;;;;;10.10;5.25;;;15.60;97.70;;;;;;5032058;28;20068;-71
2021/11/19 11:42:20;;;;;;;6.05;4.80;;;15.50;97.50;;;;;;5053274;28;20088;-70
2021/11/19 11:44:49;;;;;;;5.72;4.55;;;16.20;96.90;;;;;;5049414;28;20052;-77
2021/11/19 11:47:16;;;;;;;6.00;4.22;;;16.50;96.60;;;;;;5055093;28;20399;-71
2021/11/19 11:49:46;;;;;;;5.43;3.97;;;17.30;94.80;;;;;;5046812;28;20029;-71
2021/11/19 11:52:32;;;;;;;6.63;4.75;;;16.80;94.90;;;;;;5043740;28;20053;-70
2021/11/19 11:54:58;;;;;;;6.35;4.10;;;16.30;95.50;;;;;;5043075;28;20024;-71
2021/11/19 11:57:57;;;;;;;7.43;4.35;;;15.70;96.50;;;;;;5043050;28;20025;-71
2021/11/19 12:01:08;;;;;;;5.20;3.97;;;16.70;96.20;;;;;;5027671;28;20049;-70
2021/11/19 12:03:42;;;;;;;5.50;4.30;;;16.40;95.60;;;;;;4991840;28;20042;-71
2021/11/19 12:06:39;;;;;;;8.38;4.32;;;16.30;96.40;;;;;;5004816;28;20032;-70
2021/11/19 12:09:36;;;;;;;5.95;4.57;;;15.50;96.30;;;;;;5044153;28;20100;-70
2021/11/19 12:12:30;;;;;;;5.07;4.35;;;14.70;98.40;;;;;;5053600;28;20036;-71
2021/11/19 12:15:01;;;;;;;6.43;4.63;;;15.10;99.00;;;;;;5051912;28;20029;-71
2021/11/19 12:17:29;;;;;;;6.35;4.07;;;15.20;98.20;;;;;;5053156;28;20025;-71
2021/11/19 12:20:01;;;;;;;8.10;4.32;;;15.40;98.00;;;;;;5040546;28;20442;-70
2021/11/19 12:22:45;;;;;;;4.60;3.90;;;16.20;96.80;;;;;;5049371;28;20031;-71
2021/11/19 12:25:23;;;;;;;5.75;4.20;;;17.10;95.80;;;;;;5052291;28;20531;-72
2021/11/19 12:27:56;;;;;;;4.80;3.70;;;17.40;95.00;;;;;;5041199;28;20025;-72
2021/11/19 12:30:48;;;;;;;6.60;3.75;;;17.30;96.10;;;;;;5033080;28;20100;-72
2021/11/19 12:33:17;;;;;;;;;;;18.20;93.80;;;;;;5033069;28;20031;-72
2021/11/19 12:36:03;;;;;;;6.53;3.92;;;19.30;92.60;;;;;;5043549;28;20263;-71
2021/11/19 12:38:35;;;;;;;4.93;3.80;;;19.10;92.90;;;;;;5033732;28;20036;-71
2021/11/19 12:41:07;;;;;;;7.85;3.92;;;19.80;92.40;;;;;;5043962;28;20021;-71
2021/11/19 12:43:36;;;;;;;6.70;3.95;;;20.20;91.10;;;;;;5040129;28;20040;-71
2021/11/19 12:46:23;;;;;;;6.65;3.72;;;19.90;90.80;;;;;;5032160;28;20028;-71
2021/11/19 12:49:26;;;;;;;5.57;3.78;;;20.60;90.30;;;;;;5034442;28;20050;-71
2021/11/19 12:52:09;;;;;;;7.85;4.03;;;18.70;91.20;;;;;;5048741;28;20025;-71
2021/11/19 12:54:41;;;;;;;5.53;3.72;;;17.30;93.40;;;;;;5047799;28;20048;-74
2021/11/19 12:57:33;;;;;;;8.98;4.28;;;16.80;95.50;;;;;;5052960;28;20086;-77
2021/11/19 13:00:03;;;;;;;7.78;4.20;;;16.10;97.40;;;;;;5052194;28;20021;-76
2021/11/19 13:02:58;;;;;;;6.88;3.67;;;16.40;97.40;;;;;;5034513;28;20021;-75
2021/11/19 13:05:45;;;;;;;9.30;4.78;;;16.80;95.80;;;;;;5019972;28;20095;-71
2021/11/19 13:08:36;;;;;;;5.13;3.08;;;18.70;93.00;;;;;;5033335;28;20021;-70
2021/11/19 13:11:28;;;;;;;11.23;4.43;;;18.50;91.80;;;;;;5021621;28;20024;-70